createdAt,value
2022-09-27T00:01:06.591Z,0.70
2022-09-27T00:03:34.363Z,0.55
2022-09-27T00:06:08.043Z,0.68
2022-09-27T00:08:36.977Z,0.82
2022-09-27T00:11:07.089Z,0.60
2022-09-27T00:13:34.645Z,0.60
2022-09-27T00:16:07.146Z,0.50
2022-09-27T00:18:35.117Z,0.70
2022-09-27T00:21:12.233Z,0.75
2022-09-27T00:26:10.686Z,0.60
2022-09-27T00:28:38.337Z,1.13
2022-09-27T00:31:15.560Z,0.77
2022-09-27T00:33:43.112Z,0.70
2022-09-27T00:36:10.737Z,1.27
2022-09-27T00:38:38.368Z,0.88
2022-09-27T00:41:05.963Z,0.95
2022-09-27T00:43:58.336Z,0.77
2022-09-27T00:46:34.173Z,0.63
2022-09-27T00:49:05.351Z,0.75
2022-09-27T00:51:35.923Z,0.70
2022-09-27T00:56:32.554Z,0.60
2022-09-27T00:59:09.336Z,0.80
2022-09-27T01:01:36.871Z,1.20
2022-09-27T01:04:10.129Z,0.57
2022-09-27T01:06:38.357Z,0.75
2022-09-27T01:09:07.700Z,1.58
2022-09-27T01:12:08.787Z,0.98
2022-09-27T01:14:54.442Z,0.57
2022-09-27T01:17:24.956Z,0.90
2022-09-27T01:20:16.767Z,0.90
2022-09-27T01:22:59.833Z,0.55
2022-09-27T01:25:36.705Z,0.88
2022-09-27T01:28:20.365Z,0.60
2022-09-27T01:30:58.746Z,0.68
2022-09-27T01:33:38.184Z,0.50
2022-09-27T01:36:25.407Z,0.60
2022-09-27T01:39:11.674Z,0.82
2022-09-27T01:42:13.096Z,0.55
2022-09-27T01:44:51.345Z,1.00
2022-09-27T01:47:26.703Z,0.70
2022-09-27T01:50:14.299Z,0.80
2022-09-27T01:52:52.109Z,1.23
2022-09-27T01:55:24.684Z,0.98
2022-09-27T01:58:16.970Z,0.70
2022-09-27T02:00:50.217Z,1.02
2022-09-27T02:03:33.817Z,0.47
2022-09-27T02:06:42.367Z,0.50
2022-09-27T02:09:22.592Z,0.70
2022-09-27T02:12:13.884Z,0.55
2022-09-27T02:14:56.247Z,0.77
2022-09-27T02:17:37.948Z,0.80
2022-09-27T02:20:05.949Z,0.80
2022-09-27T02:23:02.898Z,0.98
2022-09-27T02:25:54.992Z,0.60
2022-09-27T02:28:39.916Z,0.63
2022-09-27T02:31:09.892Z,0.88
2022-09-27T02:34:00.695Z,0.57
2022-09-27T02:36:30.164Z,0.80
2022-09-27T02:38:57.795Z,0.60
2022-09-27T02:41:25.324Z,0.77
2022-09-27T02:44:14.791Z,0.60
2022-09-27T02:47:16.407Z,0.73
2022-09-27T02:50:19.653Z,0.98
2022-09-27T02:53:14.638Z,0.47
2022-09-27T02:58:58.857Z,0.70
2022-09-27T03:01:52.437Z,0.70
2022-09-27T03:04:35.617Z,0.55
2022-09-27T03:07:03.539Z,0.50
2022-09-27T03:09:44.521Z,0.80
2022-09-27T03:12:12.828Z,1.00
2022-09-27T03:14:40.855Z,1.40
2022-09-27T03:17:28.372Z,0.95
2022-09-27T03:20:14.332Z,1.13
2022-09-27T03:22:53.073Z,0.90
2022-09-27T03:25:21.411Z,0.60
2022-09-27T03:27:49.285Z,0.75
2022-09-27T03:30:16.937Z,0.75
2022-09-27T03:32:45.792Z,0.60
2022-09-27T03:35:18.957Z,0.70
2022-09-27T03:37:47.274Z,0.60
2022-09-27T03:40:15.038Z,1.10
2022-09-27T03:42:46.171Z,1.30
2022-09-27T03:45:16.815Z,1.02
2022-09-27T03:47:44.819Z,0.55
2022-09-27T03:50:13.253Z,0.73
2022-09-27T03:52:43.084Z,0.85
2022-09-27T03:55:12.259Z,0.40
2022-09-27T03:57:43.784Z,0.60
2022-09-27T04:00:12.345Z,0.60
2022-09-27T04:02:40.483Z,0.80
2022-09-27T04:05:31.182Z,0.50
2022-09-27T04:10:36.791Z,1.00
2022-09-27T04:13:05.288Z,0.93
2022-09-27T04:15:39.523Z,0.50
2022-09-27T04:18:33.410Z,0.75
2022-09-27T04:21:00.878Z,0.98
2022-09-27T04:23:30.138Z,0.60
2022-09-27T04:25:58.220Z,0.75
2022-09-27T04:28:52.122Z,0.73
2022-09-27T04:31:21.960Z,0.80
2022-09-27T04:34:01.595Z,0.68
2022-09-27T04:36:34.174Z,0.65
2022-09-27T04:39:15.272Z,0.60
2022-09-27T04:41:45.643Z,1.17
2022-09-27T04:44:13.758Z,0.73
2022-09-27T04:46:48.368Z,0.50
2022-09-27T04:49:17.672Z,0.90
2022-09-27T04:51:45.821Z,0.73
2022-09-27T04:54:13.404Z,0.88
2022-09-27T04:56:49.256Z,0.85
2022-09-27T04:59:16.766Z,0.90
2022-09-27T05:01:45.249Z,1.63
2022-09-27T05:04:16.228Z,0.90
2022-09-27T05:06:50.740Z,0.80
2022-09-27T05:09:29.208Z,0.57
2022-09-27T05:11:57.913Z,0.98
2022-09-27T05:14:34.461Z,0.85
2022-09-27T05:17:18.675Z,0.75
2022-09-27T05:19:57.203Z,0.57
2022-09-27T05:22:54.110Z,0.65
2022-09-27T05:25:21.758Z,0.82
2022-09-27T05:27:50.727Z,0.82
2022-09-27T05:30:19.416Z,1.00
2022-09-27T05:32:56.966Z,0.90
2022-09-27T05:35:27.583Z,0.77
2022-09-27T05:37:58.768Z,1.60
2022-09-27T05:40:43.312Z,0.50
2022-09-27T05:43:12.137Z,0.60
2022-09-27T05:45:40.126Z,0.63
2022-09-27T05:48:08.313Z,0.60
2022-09-27T05:50:45.150Z,1.00
2022-09-27T05:53:13.432Z,0.50
2022-09-27T05:55:43.276Z,0.30
2022-09-27T05:58:15.817Z,0.88
2022-09-27T06:00:50.753Z,1.02
2022-09-27T06:03:41.068Z,0.50
2022-09-27T06:06:37.942Z,0.70
2022-09-27T06:09:10.942Z,0.55
2022-09-27T06:11:41.762Z,0.40
2022-09-27T06:14:13.840Z,0.57
2022-09-27T06:16:55.152Z,0.90
2022-09-27T06:19:25.862Z,0.70
2022-09-27T06:21:53.645Z,1.17
2022-09-27T06:24:21.492Z,0.82
2022-09-27T06:26:49.547Z,1.23
2022-09-27T06:29:35.942Z,0.60
2022-09-27T06:32:05.995Z,0.73
2022-09-27T06:34:43.064Z,0.50
2022-09-27T06:37:11.551Z,1.33
2022-09-27T06:39:39.018Z,0.70
2022-09-27T06:42:27.618Z,0.40
2022-09-27T06:45:10.347Z,0.57
2022-09-27T06:47:57.090Z,1.10
2022-09-27T06:50:32.866Z,0.75
2022-09-27T06:53:01.143Z,0.60
2022-09-27T06:55:28.985Z,0.80
2022-09-27T06:58:16.926Z,0.40
2022-09-27T07:01:03.741Z,0.43
2022-09-27T07:04:07.468Z,0.40
2022-09-27T07:06:55.423Z,0.90
2022-09-27T07:09:25.386Z,0.50
2022-09-27T07:11:55.182Z,0.50
2022-09-27T07:14:24.575Z,0.50
2022-09-27T07:16:54.269Z,2.00
2022-09-27T07:19:22.183Z,0.60
2022-09-27T07:21:52.655Z,0.57
2022-09-27T07:24:20.445Z,0.63
2022-09-27T07:26:48.767Z,0.70
2022-09-27T07:29:18.720Z,0.35
2022-09-27T07:31:46.712Z,0.70
2022-09-27T07:34:15.250Z,1.02
2022-09-27T07:36:43.248Z,0.60
2022-09-27T07:39:10.769Z,0.52
2022-09-27T07:41:40.428Z,0.40
2022-09-27T07:44:08.934Z,0.43
2022-09-27T07:46:45.290Z,0.50
2022-09-27T07:49:39.087Z,0.77
2022-09-27T07:52:20.102Z,0.55
2022-09-27T07:54:54.726Z,0.63
2022-09-27T07:57:30.070Z,0.60
2022-09-27T07:59:59.199Z,0.80
2022-09-27T08:02:26.885Z,0.77
2022-09-27T08:04:55.185Z,0.70
2022-09-27T08:07:26.043Z,0.80
2022-09-27T08:09:56.269Z,1.40
2022-09-27T08:12:24.598Z,0.60
2022-09-27T08:14:56.800Z,0.73
2022-09-27T08:17:24.417Z,0.60
2022-09-27T08:20:24.284Z,0.70
2022-09-27T08:23:06.897Z,0.95
2022-09-27T08:25:37.246Z,1.02
2022-09-27T08:28:27.354Z,0.73
2022-09-27T08:31:00.887Z,1.15
2022-09-27T08:33:32.348Z,1.02
2022-09-27T08:36:01.905Z,1.88
2022-09-27T08:38:29.518Z,1.40
2022-09-27T08:41:01.805Z,1.17
2022-09-27T08:43:57.461Z,1.05
2022-09-27T08:46:59.109Z,1.08
2022-09-27T08:49:59.504Z,0.80
2022-09-27T08:52:41.295Z,1.02
2022-09-27T08:55:32.544Z,1.10
2022-09-27T08:58:00.556Z,1.02
2022-09-27T09:00:30.290Z,1.45
2022-09-27T09:03:02.189Z,1.50
2022-09-27T09:05:34.985Z,1.20
2022-09-27T09:08:44.402Z,1.20
2022-09-27T09:11:45.170Z,1.55
2022-09-27T09:14:33.976Z,1.52
2022-09-27T09:17:31.640Z,0.90
2022-09-27T09:20:47.855Z,1.17
2022-09-27T09:23:27.911Z,1.08
2022-09-27T09:26:20.358Z,1.02
2022-09-27T09:29:12.198Z,1.23
2022-09-27T09:31:47.417Z,1.15
2022-09-27T09:34:29.429Z,1.40
2022-09-27T09:37:05.987Z,1.00
2022-09-27T09:39:55.996Z,1.25
2022-09-27T09:42:42.134Z,1.25
2022-09-27T09:45:42.971Z,1.10
2022-09-27T09:48:37.080Z,0.90
2022-09-27T09:51:08.013Z,1.10
2022-09-27T09:54:00.277Z,1.05
2022-09-27T09:56:42.049Z,1.00
2022-09-27T09:59:15.450Z,1.20
2022-09-27T10:01:48.155Z,1.52
2022-09-27T10:04:23.206Z,1.27
2022-09-27T10:06:52.879Z,1.50
2022-09-27T10:09:26.538Z,1.15
2022-09-27T10:12:12.913Z,1.73
2022-09-27T10:14:45.169Z,2.08
2022-09-27T10:17:18.232Z,1.30
2022-09-27T10:19:48.795Z,1.65
2022-09-27T10:22:32.809Z,1.10
2022-09-27T10:25:09.264Z,1.20
2022-09-27T10:27:56.052Z,1.52
2022-09-27T10:30:33.422Z,1.65
2022-09-27T10:33:16.917Z,2.08
2022-09-27T10:35:49.692Z,1.55
2022-09-27T10:38:27.351Z,1.30
2022-09-27T10:41:28.348Z,1.27
2022-09-27T10:44:24.215Z,1.40
2022-09-27T10:47:16.516Z,0.98
2022-09-27T10:50:50.923Z,1.02
2022-09-27T10:53:34.513Z,1.45
2022-09-27T10:56:25.070Z,1.27
2022-09-27T10:58:52.974Z,0.75
2022-09-27T11:01:22.172Z,2.03
2022-09-27T11:04:04.869Z,1.40
2022-09-27T11:06:38.358Z,1.38
2022-09-27T11:09:30.035Z,1.63
2022-09-27T11:12:11.125Z,1.35
2022-09-27T11:14:40.042Z,1.52
2022-09-27T11:17:18.003Z,1.17
2022-09-27T11:20:03.566Z,1.20
2022-09-27T11:22:47.260Z,1.00
2022-09-27T11:25:43.720Z,1.75
2022-09-27T11:28:23.021Z,1.38
2022-09-27T11:31:15.348Z,1.00
2022-09-27T11:34:17.369Z,2.13
2022-09-27T11:37:14.104Z,1.00
2022-09-27T11:39:51.367Z,1.27
2022-09-27T11:42:37.334Z,1.45
2022-09-27T11:45:37.389Z,1.70
2022-09-27T11:48:35.972Z,2.05
2022-09-27T11:54:14.991Z,1.13
2022-09-27T11:57:04.414Z,1.25
2022-09-27T12:00:16.510Z,1.35
2022-09-27T12:02:55.992Z,0.93
2022-09-27T12:05:31.774Z,1.58
2022-09-27T12:08:27.670Z,1.40
2022-09-27T12:11:24.664Z,0.93
2022-09-27T12:14:04.411Z,1.67
2022-09-27T12:16:32.816Z,0.93
2022-09-27T12:19:02.991Z,1.00
2022-09-27T12:21:51.410Z,0.55
2022-09-27T12:24:22.643Z,1.00
2022-09-27T12:27:31.319Z,1.10
2022-09-27T12:29:59.774Z,1.13
2022-09-27T12:32:44.901Z,0.75
2022-09-27T12:35:18.269Z,1.15
2022-09-27T12:37:58.396Z,0.70
2022-09-27T12:40:33.834Z,0.98
2022-09-27T12:43:25.397Z,0.57
2022-09-27T12:46:37.792Z,0.60
2022-09-27T12:49:30.239Z,0.73
2022-09-27T12:52:08.183Z,0.80
2022-09-27T12:54:57.521Z,0.75
2022-09-27T12:57:40.055Z,0.90
2022-09-27T13:00:56.078Z,0.60
2022-09-27T13:06:39.654Z,0.90
2022-09-27T13:09:20.283Z,0.68
2022-09-27T13:12:13.857Z,0.63
2022-09-27T13:15:11.139Z,0.70
2022-09-27T13:17:42.195Z,0.95
2022-09-27T13:20:31.719Z,0.80
2022-09-27T13:23:05.097Z,0.68
2022-09-27T13:25:56.443Z,0.60
2022-09-27T13:28:51.987Z,0.45
2022-09-27T13:31:54.137Z,1.00
2022-09-27T13:34:41.110Z,0.52
2022-09-27T13:37:59.019Z,0.73
2022-09-27T13:40:49.559Z,0.80
2022-09-27T13:43:53.467Z,0.70
2022-09-27T13:46:53.334Z,0.75
2022-09-27T13:49:32.865Z,0.30
2022-09-27T13:52:36.308Z,0.20
2022-09-27T13:55:41.503Z,0.60
2022-09-27T13:58:41.118Z,0.63
2022-09-27T14:01:53.518Z,0.50
2022-09-27T14:04:41.730Z,0.40
2022-09-27T14:07:15.594Z,0.47
2022-09-27T14:09:47.989Z,0.75
2022-09-27T14:14:56.955Z,0.60
2022-09-27T14:17:26.378Z,0.80
2022-09-27T14:19:54.669Z,0.60
2022-09-27T14:22:24.893Z,1.45
2022-09-27T14:24:58.025Z,0.40
2022-09-27T14:27:36.405Z,0.60
2022-09-27T14:30:24.973Z,0.50
2022-09-27T14:33:01.622Z,0.73
2022-09-27T14:36:08.766Z,0.70
2022-09-27T14:38:39.536Z,0.70
2022-09-27T14:41:35.047Z,0.82
2022-09-27T14:44:02.828Z,0.77
2022-09-27T14:46:32.253Z,0.77
2022-09-27T14:49:14.041Z,0.65
2022-09-27T14:51:41.728Z,0.77
2022-09-27T14:54:26.224Z,0.80
2022-09-27T14:56:56.240Z,0.73
2022-09-27T14:59:33.650Z,0.60
2022-09-27T15:02:10.283Z,0.45
2022-09-27T15:04:38.787Z,0.60
2022-09-27T15:07:06.862Z,0.50
2022-09-27T15:09:34.856Z,0.75
2022-09-27T15:12:05.587Z,0.55
2022-09-27T15:14:34.366Z,1.02
2022-09-27T15:17:06.333Z,1.10
2022-09-27T15:19:37.370Z,0.82
2022-09-27T15:22:34.494Z,0.43
2022-09-27T15:25:19.544Z,0.50
2022-09-27T15:27:52.050Z,0.63
2022-09-27T15:30:29.655Z,0.50
2022-09-27T15:32:57.776Z,0.73
2022-09-27T15:35:28.880Z,0.70
2022-09-27T15:38:24.893Z,0.40
2022-09-27T15:40:52.434Z,0.60
2022-09-27T15:43:30.195Z,0.93
2022-09-27T15:46:04.592Z,0.63
2022-09-27T15:48:35.409Z,1.58
2022-09-27T15:51:03.537Z,0.60
2022-09-27T15:53:37.298Z,0.93
2022-09-27T15:56:06.962Z,0.68
2022-09-27T15:58:35.940Z,0.70
2022-09-27T16:01:08.740Z,1.00
2022-09-27T16:03:36.282Z,0.63
2022-09-27T16:06:04.263Z,0.68
2022-09-27T16:08:32.113Z,0.73
2022-09-27T16:11:03.227Z,0.90
2022-09-27T16:13:33.142Z,0.82
2022-09-27T16:16:03.453Z,0.80
2022-09-27T16:18:32.988Z,1.00
2022-09-27T16:21:00.742Z,0.98
2022-09-27T16:23:29.512Z,1.00
2022-09-27T16:25:57.688Z,0.85
2022-09-27T16:28:25.609Z,0.90
2022-09-27T16:30:53.255Z,1.02
2022-09-27T16:33:20.976Z,1.13
2022-09-27T16:35:50.436Z,1.00
2022-09-27T16:38:17.907Z,1.05
2022-09-27T16:40:46.296Z,1.30
2022-09-27T16:43:14.101Z,2.13
2022-09-27T16:45:42.004Z,0.95
2022-09-27T16:48:10.212Z,0.95
2022-09-27T16:50:56.183Z,0.80
2022-09-27T16:53:24.369Z,0.90
2022-09-27T16:55:52.121Z,0.93
2022-09-27T16:58:19.808Z,0.73
2022-09-27T17:00:47.947Z,1.00
2022-09-27T17:03:15.872Z,0.90
2022-09-27T17:05:43.383Z,0.90
2022-09-27T17:08:10.995Z,1.27
2022-09-27T17:10:39.074Z,0.90
2022-09-27T17:13:07.189Z,1.00
2022-09-27T17:15:36.709Z,1.50
2022-09-27T17:18:04.275Z,0.70
2022-09-27T17:20:31.744Z,1.02
2022-09-27T17:22:59.313Z,0.90
2022-09-27T17:25:27.922Z,1.10
2022-09-27T17:27:56.765Z,1.52
2022-09-27T17:30:24.352Z,1.40
2022-09-27T17:32:51.858Z,1.30
2022-09-27T17:35:19.362Z,1.73
2022-09-27T17:37:47.257Z,1.30
2022-09-27T17:40:16.424Z,1.88
2022-09-27T17:42:43.922Z,1.70
2022-09-27T17:45:11.828Z,2.20
2022-09-27T17:47:57.922Z,1.67
2022-09-27T17:50:25.585Z,1.60
2022-09-27T17:52:54.087Z,2.00
2022-09-27T17:55:22.372Z,1.75
2022-09-27T17:57:51.091Z,2.17
2022-09-27T18:00:21.115Z,2.28
2022-09-27T18:02:48.875Z,1.80
2022-09-27T18:05:21.286Z,2.00
2022-09-27T18:07:49.360Z,1.70
2022-09-27T18:10:18.069Z,2.10
2022-09-27T18:12:48.051Z,2.92
2022-09-27T18:15:17.159Z,2.25
2022-09-27T18:17:46.365Z,2.80
2022-09-27T18:20:14.201Z,2.85
2022-09-27T18:22:41.776Z,3.65
2022-09-27T18:25:11.985Z,4.95
2022-09-27T18:27:40.916Z,4.93
2022-09-27T18:30:09.481Z,4.60
2022-09-27T18:32:37.656Z,4.97
2022-09-27T18:35:05.434Z,4.72
2022-09-27T18:37:34.710Z,4.13
2022-09-27T18:40:05.492Z,4.18
2022-09-27T18:42:33.733Z,2.45
2022-09-27T18:45:01.314Z,2.38
2022-09-27T18:47:29.636Z,2.30
2022-09-27T18:49:57.437Z,2.33
2022-09-27T18:52:25.270Z,2.15
2022-09-27T18:54:53.214Z,2.40
2022-09-27T18:57:21.650Z,2.17
2022-09-27T18:59:49.650Z,3.20
2022-09-27T19:02:17.712Z,2.50
2022-09-27T19:04:45.245Z,2.00
2022-09-27T19:07:13.350Z,2.50
2022-09-27T19:09:41.412Z,2.88
2022-09-27T19:12:10.580Z,2.58
2022-09-27T19:14:38.282Z,2.20
2022-09-27T19:17:05.989Z,2.60
2022-09-27T19:19:34.088Z,1.60
2022-09-27T19:22:02.042Z,2.10
2022-09-27T19:24:29.588Z,1.88
2022-09-27T19:26:57.480Z,2.10
2022-09-27T19:29:25.389Z,2.30
2022-09-27T19:31:54.033Z,2.20
2022-09-27T19:34:24.499Z,1.75
2022-09-27T19:36:52.411Z,1.90
2022-09-27T19:39:21.034Z,1.92
2022-09-27T19:41:49.400Z,2.13
2022-09-27T19:44:17.444Z,1.60
2022-09-27T19:46:46.169Z,2.58
2022-09-27T19:49:14.420Z,2.53
2022-09-27T19:51:42.476Z,2.60
2022-09-27T19:54:11.455Z,2.50
2022-09-27T19:56:39.194Z,4.03
2022-09-27T19:59:07.491Z,2.05
2022-09-27T20:01:35.860Z,3.53
2022-09-27T20:04:03.666Z,2.53
2022-09-27T20:06:32.814Z,2.55
2022-09-27T20:09:03.187Z,2.50
2022-09-27T20:11:31.531Z,2.08
2022-09-27T20:14:01.949Z,1.77
2022-09-27T20:16:30.091Z,2.38
2022-09-27T20:18:59.274Z,2.38
2022-09-27T20:21:32.595Z,1.33
2022-09-27T20:24:02.480Z,1.73
2022-09-27T20:29:00.499Z,1.38
2022-09-27T20:31:30.310Z,1.35
2022-09-27T20:33:57.901Z,1.42
2022-09-27T20:36:36.034Z,1.30
2022-09-27T20:39:06.665Z,1.02
2022-09-27T20:41:36.999Z,1.60
2022-09-27T20:46:34.940Z,1.35
2022-09-27T20:49:05.796Z,1.20
2022-09-27T20:51:35.257Z,1.30
2022-09-27T20:54:05.556Z,2.55
2022-09-27T20:56:37.526Z,1.50
2022-09-27T20:59:27.199Z,1.17
2022-09-27T21:01:54.866Z,1.40
2022-09-27T21:04:23.547Z,1.45
2022-09-27T21:06:51.728Z,1.63
2022-09-27T21:09:20.019Z,1.67
2022-09-27T21:11:51.825Z,1.65
2022-09-27T21:14:20.310Z,2.03
2022-09-27T21:16:48.263Z,1.33
2022-09-27T21:19:16.783Z,1.65
2022-09-27T21:21:45.497Z,1.17
2022-09-27T21:24:13.348Z,1.50
2022-09-27T21:26:41.488Z,1.60
2022-09-27T21:29:11.727Z,1.48
2022-09-27T21:31:43.510Z,1.60
2022-09-27T21:34:11.558Z,1.60
2022-09-27T21:36:39.492Z,1.83
2022-09-27T21:39:09.127Z,1.88
2022-09-27T21:41:38.985Z,1.95
2022-09-27T21:44:07.779Z,1.80
2022-09-27T21:46:39.571Z,1.80
2022-09-27T21:49:07.666Z,1.45
2022-09-27T21:51:42.268Z,1.95
2022-09-27T21:54:14.487Z,2.03
2022-09-27T21:56:43.808Z,2.10
2022-09-27T21:59:15.140Z,1.50
2022-09-27T22:01:45.702Z,2.30
2022-09-27T22:04:13.666Z,1.80
2022-09-27T22:06:42.038Z,1.48
2022-09-27T22:09:14.043Z,1.63
2022-09-27T22:11:44.418Z,2.47
2022-09-27T22:14:13.442Z,2.22
2022-09-27T22:16:41.496Z,2.10
2022-09-27T22:19:15.310Z,1.92
2022-09-27T22:21:43.822Z,1.50
2022-09-27T22:24:14.482Z,1.67
2022-09-27T22:29:10.596Z,1.83
2022-09-27T22:31:38.521Z,2.30
2022-09-27T22:34:11.002Z,1.75
2022-09-27T22:36:38.504Z,2.03
2022-09-27T22:39:06.308Z,2.42
2022-09-27T22:41:33.904Z,1.65
2022-09-27T22:44:01.730Z,2.20
2022-09-27T22:46:29.399Z,1.40
2022-09-27T22:48:57.144Z,1.85
2022-09-27T22:51:24.936Z,1.63
2022-09-27T22:53:52.630Z,1.63
2022-09-27T22:56:21.027Z,2.15
2022-09-27T22:58:49.882Z,1.67
2022-09-27T23:01:18.677Z,2.13
2022-09-27T23:03:47.173Z,1.60
2022-09-27T23:06:16.858Z,1.70
2022-09-27T23:08:44.740Z,1.48
2022-09-27T23:11:14.988Z,1.95
2022-09-27T23:13:44.130Z,2.05
2022-09-27T23:16:14.789Z,1.40
2022-09-27T23:18:42.771Z,1.50
2022-09-27T23:21:12.230Z,1.30
2022-09-27T23:23:42.028Z,2.17
2022-09-27T23:26:11.885Z,1.52
2022-09-27T23:28:39.937Z,1.52
2022-09-27T23:31:10.262Z,1.95
2022-09-27T23:33:39.840Z,1.42
2022-09-27T23:36:10.494Z,1.58
2022-09-27T23:41:08.382Z,1.45
2022-09-27T23:43:36.444Z,1.75
2022-09-27T23:46:05.756Z,1.52
2022-09-27T23:48:34.702Z,1.33
2022-09-27T23:51:03.920Z,1.65
2022-09-27T23:53:31.376Z,1.52
2022-09-27T23:56:04.739Z,1.52
2022-09-27T23:58:36.413Z,2.15
